Abis Cuxhaven — PBYB — position and weather

sailwx.info

Track history (hours):
 
Tides and Currents Weather Stations Pressure Air Temp Water Temp Dewpoint Dewpoint Depression Visibility Wind Speed Wind Dir Waves Ship Positions

Abis Cuxhaven

Last reported at 2016-Jul-28 13:32 UTC. Time now 2016-Jul-28 14:33 UTC.
Position N 52°24' E 004°50'.

Length 114 m; draft 4.2 m.

Type: Cargo ship. MMSI: 246670000.

Date/timePositionNaut miles runAvg speedWind from/ knotsBaromVisibWave heightAir tempDewpointWater temp
2016-Jul-28 13:32N 52°24' E 004°50'0 0.0
2016-Jul-28 12:32N 52°24' E 004°50'0 0.0
2016-Jul-28 11:32N 52°24' E 004°50'0 0.0
2016-Jul-28 10:32N 52°24' E 004°50'0 0.0
2016-Jul-28 09:29N 52°24' E 004°50'0 0.0
2016-Jul-28 08:32N 52°24' E 004°49'0 0.0
2016-Jul-28 07:32N 52°24' E 004°50'0 0.0
2016-Jul-28 06:32N 52°24' E 004°50'0 0.0
2016-Jul-28 05:29N 52°24' E 004°50'0 0.0
2016-Jul-28 04:32N 52°24' E 004°50'0 0.0
2016-Jul-28 03:32N 52°24' E 004°50'0 0.0
2016-Jul-28 02:32N 52°24' E 004°50'0 0.0
2016-Jul-28 01:32N 52°24' E 004°50'0 0.0
2016-Jul-28 00:32N 52°24' E 004°50'0 0.0
2016-Jul-27 23:32N 52°24' E 004°50'0 0.0
2016-Jul-27 22:32N 52°24' E 004°50'0 0.0
2016-Jul-27 21:32N 52°24' E 004°50'0 0.0
2016-Jul-27 20:26N 52°24' E 004°50'0 0.0
2016-Jul-27 19:32N 52°24' E 004°50'0 0.0
2016-Jul-27 18:32N 52°24' E 004°50'0 0.0
2016-Jul-27 17:32N 52°24' E 004°50'0 0.0
2016-Jul-27 16:32N 52°24' E 004°50'0 0.0
2016-Jul-27 15:32N 52°24' E 004°50'0 0.0
2016-Jul-27 14:32N 52°24' E 004°50'0 0.0
2016-Jul-27 13:32N 52°24' E 004°50'0 0.0
2016-Jul-27 12:32N 52°24' E 004°50'1 0.7
2016-Jul-27 11:34N 52°25' E 004°49'9 8.6
2016-Jul-27 10:33N 52°28' E 004°36'7 7.1
2016-Jul-27 09:33N 52°28' E 004°24'9 9.0
2016-Jul-27 08:33N 52°29' E 004°10'9 8.9
2016-Jul-27 07:34N 52°37' E 004°01'10 9.5
2016-Jul-27 06:31N 52°39' E 003°46'1010.0
2016-Jul-27 05:33N 52°43' E 003°31'2711.7
2016-Jul-27 03:15N 52°55' E 002°51'3412.5
2016-Jul-27 00:33N 53°11' E 002°01'1413.4
2016-Jul-26 23:31N 53°17' E 001°41'2613.0
2016-Jul-26 21:32N 53°27' E 001°01'1412.5
2016-Jul-26 20:22N 53°31' E 000°37'1012.5
2016-Jul-26 19:32N 53°32' E 000°20'10 9.8
2016-Jul-26 18:33N 53°34' E 000°04'10 9.8
2016-Jul-26 17:33N 53°38' W 000°11'0 0.2
2016-Jul-26 16:30N 53°38' W 000°11'0 0.0
2016-Jul-26 15:33N 53°38' W 000°11'0 0.0
2016-Jul-26 14:33N 53°38' W 000°11'0 0.0
2016-Jul-26 13:33N 53°38' W 000°11'0 0.0
2016-Jul-26 12:33N 53°38' W 000°11'0 0.0
2016-Jul-26 11:33N 53°38' W 000°11'0 0.0
2016-Jul-26 10:33N 53°38' W 000°11'0 0.0
2016-Jul-26 09:33N 53°38' W 000°11'0 0.0
2016-Jul-26 08:33N 53°38' W 000°11'0 0.0
2016-Jul-26 07:33N 53°38' W 000°11'0 0.0
2016-Jul-26 06:32N 53°38' W 000°11'0 0.0
2016-Jul-26 05:33N 53°38' W 000°11'0 0.0
2016-Jul-26 04:33N 53°38' W 000°11'0 0.0
2016-Jul-26 03:33N 53°38' W 000°11'0 0.0
2016-Jul-26 02:32N 53°38' W 000°11'0 0.0
2016-Jul-26 01:33N 53°38' W 000°11'0 0.0
2016-Jul-26 00:33N 53°38' W 000°11'0 0.0
2016-Jul-25 23:33N 53°38' W 000°11'0 0.0
2016-Jul-25 22:33N 53°38' W 000°11'0 0.0
2016-Jul-25 21:33N 53°38' W 000°11'0 0.0
2016-Jul-25 20:33N 53°38' W 000°11'0 0.0
2016-Jul-25 19:33N 53°38' W 000°11'0 0.0
2016-Jul-25 18:33N 53°38' W 000°11'0 0.0
2016-Jul-25 17:33N 53°38' W 000°11'0 0.0
2016-Jul-25 16:32N 53°38' W 000°11'0 0.0
2016-Jul-25 15:33N 53°38' W 000°11'0 0.0
2016-Jul-25 14:33N 53°38' W 000°11'0 0.0
2016-Jul-25 13:33N 53°38' W 000°11'0 0.0
2016-Jul-25 12:33N 53°38' W 000°11'0 0.0
2016-Jul-25 11:33N 53°38' W 000°11'0 0.0
2016-Jul-25 10:29N 53°38' W 000°11'0 0.0
2016-Jul-25 09:30N 53°38' W 000°11'0 0.0
2016-Jul-25 08:33N 53°38' W 000°11'0 0.0
2016-Jul-25 07:33N 53°38' W 000°11'0 0.0
2016-Jul-25 06:33N 53°38' W 000°11'0 0.0
2016-Jul-25 05:33N 53°38' W 000°11'0 0.0
2016-Jul-25 04:33N 53°38' W 000°11'0 0.0
2016-Jul-25 03:33N 53°38' W 000°11'0 0.0
2016-Jul-25 02:33N 53°38' W 000°11'0 0.0
2016-Jul-25 01:33N 53°38' W 000°11'0 0.0
2016-Jul-25 00:33N 53°38' W 000°11'0 0.0
2016-Jul-24 23:33N 53°38' W 000°11'0 0.0
2016-Jul-24 22:33N 53°38' W 000°11'0 0.0
2016-Jul-24 21:30N 53°38' W 000°11'0 0.0
2016-Jul-24 20:33N 53°38' W 000°11'0 0.0
2016-Jul-24 19:33N 53°38' W 000°11'0 0.0
2016-Jul-24 18:34N 53°38' W 000°11'0 0.2
2016-Jul-24 17:33N 53°38' W 000°11'4 4.3
2016-Jul-24 16:34N 53°37' W 000°04'1211.5
2016-Jul-24 15:34N 53°33' E 000°14'8 7.7
2016-Jul-24 14:33N 53°33' E 000°27'1211.3
2016-Jul-24 13:32N 53°36' E 000°46'5911.7
2016-Jul-24 08:27N 53°50' E 002°24'1111.7
2016-Jul-24 07:30N 53°53' E 002°42'1211.7
2016-Jul-24 06:27N 53°56' E 003°02'10 9.5
2016-Jul-24 05:26N 53°58' E 003°18'4611.2
2016-Jul-24 01:19N 54°03' E 004°36'910.1
2016-Jul-24 00:27N 54°04' E 004°50'9 9.7
2016-Jul-23 23:32N 54°05' E 005°06'9 9.4
2016-Jul-23 22:33N 54°07' E 005°21'9 9.4
2016-Jul-23 21:33N 54°08' E 005°37'10 9.7
2016-Jul-23 20:33N 54°10' E 005°53'1010.2
2016-Jul-23 19:33N 54°11' E 006°10'1110.6
2016-Jul-23 18:33N 54°12' E 006°28'1211.3
2016-Jul-23 17:32N 54°13' E 006°48'1111.8
2016-Jul-23 16:34N 54°13' E 007°08'1111.4
2016-Jul-23 15:33N 54°13' E 007°27'1111.0
2016-Jul-23 14:34N 54°08' E 007°44'1010.4
2016-Jul-23 13:34N 54°03' E 007°60'1010.1
2016-Jul-23 12:33N 54°00' E 008°16'10 9.8
2016-Jul-23 11:33N 53°58' E 008°32'9 8.9
2016-Jul-23 10:34N 53°52' E 008°44'1212.2
2016-Jul-23 09:34N 53°52' E 009°04'1212.1
2016-Jul-23 08:34N 53°48' E 009°23'1414.0
2016-Jul-23 07:33N 53°36' E 009°36'1212.1
2016-Jul-23 06:33N 53°32' E 009°56'4 2.2
2016-Jul-23 04:31N 53°28' E 009°58'0 0.0
2016-Jul-23 03:31N 53°28' E 009°58'0 0.0
2016-Jul-23 02:31N 53°28' E 009°58'0 0.0
2016-Jul-23 01:31N 53°28' E 009°58'0 0.0
2016-Jul-23 00:31N 53°28' E 009°58'0 0.0
2016-Jul-22 23:31N 53°28' E 009°58'0 0.0
2016-Jul-22 22:31N 53°28' E 009°58'0 0.0
2016-Jul-22 21:28N 53°28' E 009°58'0 0.0
2016-Jul-22 20:31N 53°28' E 009°58'0 0.0
2016-Jul-22 19:31N 53°28' E 009°58'0 0.0
2016-Jul-22 18:31N 53°28' E 009°58'0 0.0
2016-Jul-22 17:31N 53°28' E 009°58'0 0.0
2016-Jul-22 16:31N 53°28' E 009°58'0 0.0
2016-Jul-22 15:31N 53°28' E 009°58'0 0.0
2016-Jul-22 14:31N 53°28' E 009°58'0 0.0
2016-Jul-22 13:31N 53°28' E 009°58'0 0.0
2016-Jul-22 12:31N 53°28' E 009°58'0 0.0
2016-Jul-22 11:31N 53°28' E 009°58'0 0.0
2016-Jul-22 10:31N 53°28' E 009°58'0 0.0
2016-Jul-22 09:31N 53°28' E 009°58'0 0.0
2016-Jul-22 08:31N 53°28' E 009°58'0 0.0
2016-Jul-22 07:31N 53°28' E 009°58'0 0.0
2016-Jul-22 04:31N 53°28' E 009°58'0 0.0
2016-Jul-22 03:31N 53°28' E 009°58'0 0.0
2016-Jul-22 02:31N 53°28' E 009°58'0 0.0
2016-Jul-22 01:31N 53°28' E 009°58'0 0.0
2016-Jul-22 00:31N 53°28' E 009°58'0 0.0
2016-Jul-21 23:31N 53°28' E 009°58'0 0.0
2016-Jul-21 22:31N 53°28' E 009°58'0 0.0
2016-Jul-21 21:31N 53°28' E 009°58'0 0.1
2016-Jul-21 20:34N 53°28' E 009°59'4 4.4
2016-Jul-21 19:33N 53°32' E 009°55'7 6.7
2016-Jul-21 18:34N 53°34' E 009°44'6 6.4
2016-Jul-21 17:34N 53°36' E 009°35'9 8.6
2016-Jul-21 16:34N 53°44' E 009°27'1010.4
2016-Jul-21 15:34N 53°52' E 009°17'5 4.6
2016-Jul-21 14:33N 53°53' E 009°09'0 0.0
2016-Jul-21 13:33N 53°53' E 009°09'0 0.0
2016-Jul-21 12:32N 53°53' E 009°09'0 0.0
2016-Jul-21 11:32N 53°53' E 009°09'0 0.0
2016-Jul-21 10:30N 53°53' E 009°09'4 4.5
2016-Jul-21 09:33N 53°52' E 009°02'1111.1
2016-Jul-21 08:33N 53°52' E 008°43'1111.2
2016-Jul-21 07:33N 53°59' E 008°27'1211.6
2016-Jul-21 06:33N 53°60' E 008°08'1211.7
2016-Jul-21 05:33N 54°04' E 007°50'7 6.8
2016-Jul-21 04:33N 54°08' E 007°39'7 6.6
2016-Jul-21 03:33N 54°09' E 007°29'7 6.9
2016-Jul-21 02:33N 54°09' E 007°17'9 7.3
2016-Jul-21 01:21N 54°09' E 007°02'6 7.8
2016-Jul-21 00:33N 54°09' E 006°51'8 8.5
2016-Jul-20 23:33N 54°08' E 006°36'9 9.0
2016-Jul-20 22:33N 54°08' E 006°21'10 9.2
2016-Jul-20 21:28N 54°07' E 006°04'8 9.1
2016-Jul-20 20:33N 54°06' E 005°50'9 8.9
2016-Jul-20 19:33N 54°05' E 005°35'9 8.8
2016-Jul-20 18:33N 54°03' E 005°20'9 8.6
2016-Jul-20 17:33N 54°02' E 005°06'8 8.3
2016-Jul-20 16:33N 54°01' E 004°52'7 7.4
2016-Jul-20 15:33N 54°00' E 004°39'7 6.9
2016-Jul-20 14:33N 53°59' E 004°28'19 6.3
2016-Jul-20 11:31N 53°57' E 003°55'6 6.4
2016-Jul-20 10:33N 53°56' E 003°45'7 6.9
2016-Jul-20 09:32N 53°55' E 003°33'8 7.7
2016-Jul-20 08:31N 53°54' E 003°20'10 8.7
2016-Jul-20 07:25N 53°53' E 003°04'11 8.8
2016-Jul-20 06:07N 53°52' E 002°45'38 9.8
2016-Jul-20 02:19N 53°41' E 001°44'21 9.6
2016-Jul-20 00:06N 53°37' E 001°09'6 9.7
2016-Jul-19 23:31N 53°36' E 000°60'9 9.5
2016-Jul-19 22:33N 53°34' E 000°45'10 9.7
2016-Jul-19 21:31N 53°32' E 000°28'1010.3
2016-Jul-19 20:33N 53°33' E 000°11'1413.5
2016-Jul-19 19:33N 53°38' W 000°10'1 1.3
2016-Jul-19 18:33N 53°38' W 000°12'0 0.0
2016-Jul-19 17:33N 53°38' W 000°12'0 0.0
2016-Jul-19 16:33N 53°38' W 000°12'0 0.0
2016-Jul-19 15:33N 53°38' W 000°12'0 0.0
2016-Jul-19 14:33N 53°38' W 000°12'0 0.0
2016-Jul-19 13:33N 53°38' W 000°12'0 0.0
2016-Jul-19 12:33N 53°38' W 000°12'0 0.0
2016-Jul-19 11:33N 53°38' W 000°12'0 0.0
2016-Jul-19 10:33N 53°38' W 000°12'0 0.0
2016-Jul-19 09:33N 53°38' W 000°12'0 0.0
2016-Jul-19 08:33N 53°38' W 000°12'0 0.0
2016-Jul-19 07:33N 53°38' W 000°12'0 0.0
2016-Jul-19 04:33N 53°38' W 000°12'0 0.0
2016-Jul-19 03:33N 53°38' W 000°12'0 0.0
2016-Jul-19 02:33N 53°38' W 000°12'0 0.0
2016-Jul-19 01:33N 53°38' W 000°12'0 0.0
2016-Jul-19 00:33N 53°38' W 000°12'0 0.0
2016-Jul-18 23:33N 53°38' W 000°12'0 0.0
2016-Jul-18 22:33N 53°38' W 000°12'0 0.0
2016-Jul-18 21:33N 53°38' W 000°12'0 0.0
2016-Jul-18 20:33N 53°38' W 000°12'0 0.0
2016-Jul-18 19:33N 53°38' W 000°12'0 0.0
2016-Jul-18 18:33N 53°38' W 000°12'0 0.0
2016-Jul-18 17:33N 53°38' W 000°12'0 0.0
2016-Jul-18 16:33N 53°38' W 000°12'0 0.0
2016-Jul-18 15:33N 53°38' W 000°12'0 0.0
2016-Jul-18 14:33N 53°38' W 000°12'0 0.0
2016-Jul-18 13:33N 53°38' W 000°12'  
Track history (hours):
 
Tides and Currents Weather Stations Pressure Air Temp Water Temp Dewpoint Dewpoint Depression Visibility Wind Speed Wind Dir Waves Ship Positions

Abis Cuxhaven

Last reported at 2016-Jul-28 13:32 UTC. Time now 2016-Jul-28 14:33 UTC.
Position N 52°24' E 004°50'.

Length 114 m; draft 4.2 m.

Type: Cargo ship. MMSI: 246670000.

Date/timePositionNaut miles runAvg speedWind from/ knotsBaromVisibWave heightAir tempDewpointWater temp
2016-Jul-28 13:32N 52°24' E 004°50'0 0.0
2016-Jul-28 12:32N 52°24' E 004°50'0 0.0
2016-Jul-28 11:32N 52°24' E 004°50'0 0.0
2016-Jul-28 10:32N 52°24' E 004°50'0 0.0
2016-Jul-28 09:29N 52°24' E 004°50'0 0.0
2016-Jul-28 08:32N 52°24' E 004°49'0 0.0
2016-Jul-28 07:32N 52°24' E 004°50'0 0.0
2016-Jul-28 06:32N 52°24' E 004°50'0 0.0
2016-Jul-28 05:29N 52°24' E 004°50'0 0.0
2016-Jul-28 04:32N 52°24' E 004°50'0 0.0
2016-Jul-28 03:32N 52°24' E 004°50'0 0.0
2016-Jul-28 02:32N 52°24' E 004°50'0 0.0
2016-Jul-28 01:32N 52°24' E 004°50'0 0.0
2016-Jul-28 00:32N 52°24' E 004°50'0 0.0
2016-Jul-27 23:32N 52°24' E 004°50'0 0.0
2016-Jul-27 22:32N 52°24' E 004°50'0 0.0
2016-Jul-27 21:32N 52°24' E 004°50'0 0.0
2016-Jul-27 20:26N 52°24' E 004°50'0 0.0
2016-Jul-27 19:32N 52°24' E 004°50'0 0.0
2016-Jul-27 18:32N 52°24' E 004°50'0 0.0
2016-Jul-27 17:32N 52°24' E 004°50'0 0.0
2016-Jul-27 16:32N 52°24' E 004°50'0 0.0
2016-Jul-27 15:32N 52°24' E 004°50'0 0.0
2016-Jul-27 14:32N 52°24' E 004°50'0 0.0
2016-Jul-27 13:32N 52°24' E 004°50'0 0.0
2016-Jul-27 12:32N 52°24' E 004°50'1 0.7
2016-Jul-27 11:34N 52°25' E 004°49'9 8.6
2016-Jul-27 10:33N 52°28' E 004°36'7 7.1
2016-Jul-27 09:33N 52°28' E 004°24'9 9.0
2016-Jul-27 08:33N 52°29' E 004°10'9 8.9
2016-Jul-27 07:34N 52°37' E 004°01'10 9.5
2016-Jul-27 06:31N 52°39' E 003°46'1010.0
2016-Jul-27 05:33N 52°43' E 003°31'2711.7
2016-Jul-27 03:15N 52°55' E 002°51'3412.5
2016-Jul-27 00:33N 53°11' E 002°01'1413.4
2016-Jul-26 23:31N 53°17' E 001°41'2613.0
2016-Jul-26 21:32N 53°27' E 001°01'1412.5
2016-Jul-26 20:22N 53°31' E 000°37'1012.5
2016-Jul-26 19:32N 53°32' E 000°20'10 9.8
2016-Jul-26 18:33N 53°34' E 000°04'10 9.8
2016-Jul-26 17:33N 53°38' W 000°11'0 0.2
2016-Jul-26 16:30N 53°38' W 000°11'0 0.0
2016-Jul-26 15:33N 53°38' W 000°11'0 0.0
2016-Jul-26 14:33N 53°38' W 000°11'0 0.0
2016-Jul-26 13:33N 53°38' W 000°11'0 0.0
2016-Jul-26 12:33N 53°38' W 000°11'0 0.0
2016-Jul-26 11:33N 53°38' W 000°11'0 0.0
2016-Jul-26 10:33N 53°38' W 000°11'0 0.0
2016-Jul-26 09:33N 53°38' W 000°11'0 0.0
2016-Jul-26 08:33N 53°38' W 000°11'0 0.0
2016-Jul-26 07:33N 53°38' W 000°11'0 0.0
2016-Jul-26 06:32N 53°38' W 000°11'0 0.0
2016-Jul-26 05:33N 53°38' W 000°11'0 0.0
2016-Jul-26 04:33N 53°38' W 000°11'0 0.0
2016-Jul-26 03:33N 53°38' W 000°11'0 0.0
2016-Jul-26 02:32N 53°38' W 000°11'0 0.0
2016-Jul-26 01:33N 53°38' W 000°11'0 0.0
2016-Jul-26 00:33N 53°38' W 000°11'0 0.0
2016-Jul-25 23:33N 53°38' W 000°11'0 0.0
2016-Jul-25 22:33N 53°38' W 000°11'0 0.0
2016-Jul-25 21:33N 53°38' W 000°11'0 0.0
2016-Jul-25 20:33N 53°38' W 000°11'0 0.0
2016-Jul-25 19:33N 53°38' W 000°11'0 0.0
2016-Jul-25 18:33N 53°38' W 000°11'0 0.0
2016-Jul-25 17:33N 53°38' W 000°11'0 0.0
2016-Jul-25 16:32N 53°38' W 000°11'0 0.0
2016-Jul-25 15:33N 53°38' W 000°11'0 0.0
2016-Jul-25 14:33N 53°38' W 000°11'0 0.0
2016-Jul-25 13:33N 53°38' W 000°11'0 0.0
2016-Jul-25 12:33N 53°38' W 000°11'0 0.0
2016-Jul-25 11:33N 53°38' W 000°11'0 0.0
2016-Jul-25 10:29N 53°38' W 000°11'0 0.0
2016-Jul-25 09:30N 53°38' W 000°11'0 0.0
2016-Jul-25 08:33N 53°38' W 000°11'0 0.0
2016-Jul-25 07:33N 53°38' W 000°11'0 0.0
2016-Jul-25 06:33N 53°38' W 000°11'0 0.0
2016-Jul-25 05:33N 53°38' W 000°11'0 0.0
2016-Jul-25 04:33N 53°38' W 000°11'0 0.0
2016-Jul-25 03:33N 53°38' W 000°11'0 0.0
2016-Jul-25 02:33N 53°38' W 000°11'0 0.0
2016-Jul-25 01:33N 53°38' W 000°11'0 0.0
2016-Jul-25 00:33N 53°38' W 000°11'0 0.0
2016-Jul-24 23:33N 53°38' W 000°11'0 0.0
2016-Jul-24 22:33N 53°38' W 000°11'0 0.0
2016-Jul-24 21:30N 53°38' W 000°11'0 0.0
2016-Jul-24 20:33N 53°38' W 000°11'0 0.0
2016-Jul-24 19:33N 53°38' W 000°11'0 0.0
2016-Jul-24 18:34N 53°38' W 000°11'0 0.2
2016-Jul-24 17:33N 53°38' W 000°11'4 4.3
2016-Jul-24 16:34N 53°37' W 000°04'1211.5
2016-Jul-24 15:34N 53°33' E 000°14'8 7.7
2016-Jul-24 14:33N 53°33' E 000°27'1211.3
2016-Jul-24 13:32N 53°36' E 000°46'5911.7
2016-Jul-24 08:27N 53°50' E 002°24'1111.7
2016-Jul-24 07:30N 53°53' E 002°42'1211.7
2016-Jul-24 06:27N 53°56' E 003°02'10 9.5
2016-Jul-24 05:26N 53°58' E 003°18'4611.2
2016-Jul-24 01:19N 54°03' E 004°36'910.1
2016-Jul-24 00:27N 54°04' E 004°50'9 9.7
2016-Jul-23 23:32N 54°05' E 005°06'9 9.4
2016-Jul-23 22:33N 54°07' E 005°21'9 9.4
2016-Jul-23 21:33N 54°08' E 005°37'10 9.7
2016-Jul-23 20:33N 54°10' E 005°53'1010.2
2016-Jul-23 19:33N 54°11' E 006°10'1110.6
2016-Jul-23 18:33N 54°12' E 006°28'1211.3
2016-Jul-23 17:32N 54°13' E 006°48'1111.8
2016-Jul-23 16:34N 54°13' E 007°08'1111.4
2016-Jul-23 15:33N 54°13' E 007°27'1111.0
2016-Jul-23 14:34N 54°08' E 007°44'1010.4
2016-Jul-23 13:34N 54°03' E 007°60'1010.1
2016-Jul-23 12:33N 54°00' E 008°16'10 9.8
2016-Jul-23 11:33N 53°58' E 008°32'9 8.9
2016-Jul-23 10:34N 53°52' E 008°44'1212.2
2016-Jul-23 09:34N 53°52' E 009°04'1212.1
2016-Jul-23 08:34N 53°48' E 009°23'1414.0
2016-Jul-23 07:33N 53°36' E 009°36'1212.1
2016-Jul-23 06:33N 53°32' E 009°56'4 2.2
2016-Jul-23 04:31N 53°28' E 009°58'0 0.0
2016-Jul-23 03:31N 53°28' E 009°58'0 0.0
2016-Jul-23 02:31N 53°28' E 009°58'0 0.0
2016-Jul-23 01:31N 53°28' E 009°58'0 0.0
2016-Jul-23 00:31N 53°28' E 009°58'0 0.0
2016-Jul-22 23:31N 53°28' E 009°58'0 0.0
2016-Jul-22 22:31N 53°28' E 009°58'0 0.0
2016-Jul-22 21:28N 53°28' E 009°58'0 0.0
2016-Jul-22 20:31N 53°28' E 009°58'0 0.0
2016-Jul-22 19:31N 53°28' E 009°58'0 0.0
2016-Jul-22 18:31N 53°28' E 009°58'0 0.0
2016-Jul-22 17:31N 53°28' E 009°58'0 0.0
2016-Jul-22 16:31N 53°28' E 009°58'0 0.0
2016-Jul-22 15:31N 53°28' E 009°58'0 0.0
2016-Jul-22 14:31N 53°28' E 009°58'0 0.0
2016-Jul-22 13:31N 53°28' E 009°58'0 0.0
2016-Jul-22 12:31N 53°28' E 009°58'0 0.0
2016-Jul-22 11:31N 53°28' E 009°58'0 0.0
2016-Jul-22 10:31N 53°28' E 009°58'0 0.0
2016-Jul-22 09:31N 53°28' E 009°58'0 0.0
2016-Jul-22 08:31N 53°28' E 009°58'0 0.0
2016-Jul-22 07:31N 53°28' E 009°58'0 0.0
2016-Jul-22 04:31N 53°28' E 009°58'0 0.0
2016-Jul-22 03:31N 53°28' E 009°58'0 0.0
2016-Jul-22 02:31N 53°28' E 009°58'0 0.0
2016-Jul-22 01:31N 53°28' E 009°58'0 0.0
2016-Jul-22 00:31N 53°28' E 009°58'0 0.0
2016-Jul-21 23:31N 53°28' E 009°58'0 0.0
2016-Jul-21 22:31N 53°28' E 009°58'0 0.0
2016-Jul-21 21:31N 53°28' E 009°58'0 0.1
2016-Jul-21 20:34N 53°28' E 009°59'4 4.4
2016-Jul-21 19:33N 53°32' E 009°55'7 6.7
2016-Jul-21 18:34N 53°34' E 009°44'6 6.4
2016-Jul-21 17:34N 53°36' E 009°35'9 8.6
2016-Jul-21 16:34N 53°44' E 009°27'1010.4
2016-Jul-21 15:34N 53°52' E 009°17'5 4.6
2016-Jul-21 14:33N 53°53' E 009°09'0 0.0
2016-Jul-21 13:33N 53°53' E 009°09'0 0.0
2016-Jul-21 12:32N 53°53' E 009°09'0 0.0
2016-Jul-21 11:32N 53°53' E 009°09'0 0.0
2016-Jul-21 10:30N 53°53' E 009°09'4 4.5
2016-Jul-21 09:33N 53°52' E 009°02'1111.1
2016-Jul-21 08:33N 53°52' E 008°43'1111.2
2016-Jul-21 07:33N 53°59' E 008°27'1211.6
2016-Jul-21 06:33N 53°60' E 008°08'1211.7
2016-Jul-21 05:33N 54°04' E 007°50'7 6.8
2016-Jul-21 04:33N 54°08' E 007°39'7 6.6
2016-Jul-21 03:33N 54°09' E 007°29'7 6.9
2016-Jul-21 02:33N 54°09' E 007°17'9 7.3
2016-Jul-21 01:21N 54°09' E 007°02'6 7.8
2016-Jul-21 00:33N 54°09' E 006°51'8 8.5
2016-Jul-20 23:33N 54°08' E 006°36'9 9.0
2016-Jul-20 22:33N 54°08' E 006°21'10 9.2
2016-Jul-20 21:28N 54°07' E 006°04'8 9.1
2016-Jul-20 20:33N 54°06' E 005°50'9 8.9
2016-Jul-20 19:33N 54°05' E 005°35'9 8.8
2016-Jul-20 18:33N 54°03' E 005°20'9 8.6
2016-Jul-20 17:33N 54°02' E 005°06'8 8.3
2016-Jul-20 16:33N 54°01' E 004°52'7 7.4
2016-Jul-20 15:33N 54°00' E 004°39'7 6.9
2016-Jul-20 14:33N 53°59' E 004°28'19 6.3
2016-Jul-20 11:31N 53°57' E 003°55'6 6.4
2016-Jul-20 10:33N 53°56' E 003°45'7 6.9
2016-Jul-20 09:32N 53°55' E 003°33'8 7.7
2016-Jul-20 08:31N 53°54' E 003°20'10 8.7
2016-Jul-20 07:25N 53°53' E 003°04'11 8.8
2016-Jul-20 06:07N 53°52' E 002°45'38 9.8
2016-Jul-20 02:19N 53°41' E 001°44'21 9.6
2016-Jul-20 00:06N 53°37' E 001°09'6 9.7
2016-Jul-19 23:31N 53°36' E 000°60'9 9.5
2016-Jul-19 22:33N 53°34' E 000°45'10 9.7
2016-Jul-19 21:31N 53°32' E 000°28'1010.3
2016-Jul-19 20:33N 53°33' E 000°11'1413.5
2016-Jul-19 19:33N 53°38' W 000°10'1 1.3
2016-Jul-19 18:33N 53°38' W 000°12'0 0.0
2016-Jul-19 17:33N 53°38' W 000°12'0 0.0
2016-Jul-19 16:33N 53°38' W 000°12'0 0.0
2016-Jul-19 15:33N 53°38' W 000°12'0 0.0
2016-Jul-19 14:33N 53°38' W 000°12'0 0.0
2016-Jul-19 13:33N 53°38' W 000°12'0 0.0
2016-Jul-19 12:33N 53°38' W 000°12'0 0.0
2016-Jul-19 11:33N 53°38' W 000°12'0 0.0
2016-Jul-19 10:33N 53°38' W 000°12'0 0.0
2016-Jul-19 09:33N 53°38' W 000°12'0 0.0
2016-Jul-19 08:33N 53°38' W 000°12'0 0.0
2016-Jul-19 07:33N 53°38' W 000°12'0 0.0
2016-Jul-19 04:33N 53°38' W 000°12'0 0.0
2016-Jul-19 03:33N 53°38' W 000°12'0 0.0
2016-Jul-19 02:33N 53°38' W 000°12'0 0.0
2016-Jul-19 01:33N 53°38' W 000°12'0 0.0
2016-Jul-19 00:33N 53°38' W 000°12'0 0.0
2016-Jul-18 23:33N 53°38' W 000°12'0 0.0
2016-Jul-18 22:33N 53°38' W 000°12'0 0.0
2016-Jul-18 21:33N 53°38' W 000°12'0 0.0
2016-Jul-18 20:33N 53°38' W 000°12'0 0.0
2016-Jul-18 19:33N 53°38' W 000°12'0 0.0
2016-Jul-18 18:33N 53°38' W 000°12'0 0.0
2016-Jul-18 17:33N 53°38' W 000°12'0 0.0
2016-Jul-18 16:33N 53°38' W 000°12'0 0.0
2016-Jul-18 15:33N 53°38' W 000°12'0 0.0
2016-Jul-18 14:33N 53°38' W 000°12'0 0.0
2016-Jul-18 13:33N 53°38' W 000°12'  

Dump ship's entire track history